sensor_id;sensor_type;location;lat;lon;timestamp;P1;durP1;ratioP1;P2;durP2;ratioP2
40637;SDS011;26336;44.696;10.622;2022-09-03T00:02:26;4.50;;;2.58;;
40637;SDS011;26336;44.696;10.622;2022-09-03T00:05:44;8.55;;;3.17;;
40637;SDS011;26336;44.696;10.622;2022-09-03T00:08:56;5.63;;;3.40;;
40637;SDS011;26336;44.696;10.622;2022-09-03T00:12:08;5.15;;;3.67;;
40637;SDS011;26336;44.696;10.622;2022-09-03T00:15:18;7.68;;;5.22;;
40637;SDS011;26336;44.696;10.622;2022-09-03T00:18:26;6.45;;;5.18;;
40637;SDS011;26336;44.696;10.622;2022-09-03T00:21:43;6.53;;;5.93;;
40637;SDS011;26336;44.696;10.622;2022-09-03T00:24:51;6.05;;;5.45;;
40637;SDS011;26336;44.696;10.622;2022-09-03T00:27:56;5.40;;;4.85;;
40637;SDS011;26336;44.696;10.622;2022-09-03T00:31:08;7.93;;;5.40;;
40637;SDS011;26336;44.696;10.622;2022-09-03T00:34:28;6.05;;;5.45;;
40637;SDS011;26336;44.696;10.622;2022-09-03T00:37:38;7.13;;;5.07;;
40637;SDS011;26336;44.696;10.622;2022-09-03T00:40:58;7.50;;;5.25;;
40637;SDS011;26336;44.696;10.622;2022-09-03T00:51:35;5.40;;;4.57;;
40637;SDS011;26336;44.696;10.622;2022-09-03T00:58:20;7.50;;;4.50;;
40637;SDS011;26336;44.696;10.622;2022-09-03T01:14:38;6.55;;;3.33;;
40637;SDS011;26336;44.696;10.622;2022-09-03T01:21:55;6.65;;;4.82;;
40637;SDS011;26336;44.696;10.622;2022-09-03T01:28:18;4.78;;;4.25;;
40637;SDS011;26336;44.696;10.622;2022-09-03T01:48:52;4.13;;;3.58;;
40637;SDS011;26336;44.696;10.622;2022-09-03T01:52:12;4.97;;;3.40;;
40637;SDS011;26336;44.696;10.622;2022-09-03T01:58:56;7.25;;;4.07;;
40637;SDS011;26336;44.696;10.622;2022-09-03T02:02:23;3.90;;;3.38;;
40637;SDS011;26336;44.696;10.622;2022-09-03T02:05:28;4.53;;;4.07;;
40637;SDS011;26336;44.696;10.622;2022-09-03T02:08:32;4.63;;;4.10;;
40637;SDS011;26336;44.696;10.622;2022-09-03T02:11:36;4.22;;;3.58;;
40637;SDS011;26336;44.696;10.622;2022-09-03T02:14:42;4.88;;;4.47;;
40637;SDS011;26336;44.696;10.622;2022-09-03T02:17:46;5.03;;;3.50;;
40637;SDS011;26336;44.696;10.622;2022-09-03T02:20:52;3.97;;;3.30;;
40637;SDS011;26336;44.696;10.622;2022-09-03T02:23:57;6.35;;;4.15;;
40637;SDS011;26336;44.696;10.622;2022-09-03T02:27:01;6.40;;;3.95;;
40637;SDS011;26336;44.696;10.622;2022-09-03T02:30:06;4.35;;;3.95;;
40637;SDS011;26336;44.696;10.622;2022-09-03T02:33:11;9.85;;;6.10;;
40637;SDS011;26336;44.696;10.622;2022-09-03T02:36:16;6.53;;;5.35;;
40637;SDS011;26336;44.696;10.622;2022-09-03T02:39:28;8.07;;;6.55;;
40637;SDS011;26336;44.696;10.622;2022-09-03T02:42:32;8.13;;;7.28;;
40637;SDS011;26336;44.696;10.622;2022-09-03T02:45:37;8.82;;;7.70;;
40637;SDS011;26336;44.696;10.622;2022-09-03T02:48:50;9.60;;;7.50;;
40637;SDS011;26336;44.696;10.622;2022-09-03T02:52:01;8.27;;;7.47;;
40637;SDS011;26336;44.696;10.622;2022-09-03T02:55:08;8.48;;;7.60;;
40637;SDS011;26336;44.696;10.622;2022-09-03T02:58:12;12.20;;;7.63;;
40637;SDS011;26336;44.696;10.622;2022-09-03T03:01:16;8.05;;;7.25;;
40637;SDS011;26336;44.696;10.622;2022-09-03T03:04:20;8.45;;;7.55;;
40637;SDS011;26336;44.696;10.622;2022-09-03T03:07:24;7.65;;;5.88;;
40637;SDS011;26336;44.696;10.622;2022-09-03T03:10:29;6.10;;;5.40;;
40637;SDS011;26336;44.696;10.622;2022-09-03T03:13:33;6.30;;;5.80;;
40637;SDS011;26336;44.696;10.622;2022-09-03T03:16:37;8.85;;;6.13;;
40637;SDS011;26336;44.696;10.622;2022-09-03T03:19:41;9.05;;;6.97;;
40637;SDS011;26336;44.696;10.622;2022-09-03T03:22:45;7.10;;;6.50;;
40637;SDS011;26336;44.696;10.622;2022-09-03T03:25:49;7.32;;;6.45;;
40637;SDS011;26336;44.696;10.622;2022-09-03T03:28:57;8.00;;;6.45;;
40637;SDS011;26336;44.696;10.622;2022-09-03T03:32:03;9.68;;;6.13;;
40637;SDS011;26336;44.696;10.622;2022-09-03T03:35:06;6.10;;;5.50;;
40637;SDS011;26336;44.696;10.622;2022-09-03T03:38:11;8.38;;;7.57;;
40637;SDS011;26336;44.696;10.622;2022-09-03T03:41:19;7.88;;;5.95;;
40637;SDS011;26336;44.696;10.622;2022-09-03T03:44:24;7.47;;;6.78;;
40637;SDS011;26336;44.696;10.622;2022-09-03T03:47:28;9.73;;;8.52;;
40637;SDS011;26336;44.696;10.622;2022-09-03T03:50:35;11.23;;;9.07;;
40637;SDS011;26336;44.696;10.622;2022-09-03T03:53:40;8.88;;;7.78;;
40637;SDS011;26336;44.696;10.622;2022-09-03T03:56:45;10.65;;;9.55;;
40637;SDS011;26336;44.696;10.622;2022-09-03T03:59:49;10.95;;;9.35;;
40637;SDS011;26336;44.696;10.622;2022-09-03T04:02:53;11.38;;;9.35;;
40637;SDS011;26336;44.696;10.622;2022-09-03T04:05:58;10.98;;;8.98;;
40637;SDS011;26336;44.696;10.622;2022-09-03T04:09:03;10.48;;;9.45;;
40637;SDS011;26336;44.696;10.622;2022-09-03T04:12:06;12.98;;;9.80;;
40637;SDS011;26336;44.696;10.622;2022-09-03T04:15:11;10.23;;;9.23;;
40637;SDS011;26336;44.696;10.622;2022-09-03T04:18:15;10.88;;;9.00;;
40637;SDS011;26336;44.696;10.622;2022-09-03T04:21:19;9.25;;;7.93;;
40637;SDS011;26336;44.696;10.622;2022-09-03T04:24:31;11.10;;;9.18;;
40637;SDS011;26336;44.696;10.622;2022-09-03T04:27:35;10.02;;;9.02;;
40637;SDS011;26336;44.696;10.622;2022-09-03T04:30:39;9.45;;;8.55;;
40637;SDS011;26336;44.696;10.622;2022-09-03T04:33:43;8.93;;;7.72;;
40637;SDS011;26336;44.696;10.622;2022-09-03T04:36:48;8.93;;;8.13;;
40637;SDS011;26336;44.696;10.622;2022-09-03T04:39:52;10.13;;;7.50;;
40637;SDS011;26336;44.696;10.622;2022-09-03T04:42:56;8.63;;;7.38;;
40637;SDS011;26336;44.696;10.622;2022-09-03T04:46:05;9.13;;;8.05;;
40637;SDS011;26336;44.696;10.622;2022-09-03T04:49:10;9.10;;;8.23;;
40637;SDS011;26336;44.696;10.622;2022-09-03T04:52:15;9.43;;;8.32;;
40637;SDS011;26336;44.696;10.622;2022-09-03T04:55:19;7.93;;;7.25;;
40637;SDS011;26336;44.696;10.622;2022-09-03T04:58:22;9.68;;;8.30;;
40637;SDS011;26336;44.696;10.622;2022-09-03T05:01:28;9.90;;;9.00;;
40637;SDS011;26336;44.696;10.622;2022-09-03T05:04:33;9.05;;;8.02;;
40637;SDS011;26336;44.696;10.622;2022-09-03T05:07:37;9.50;;;8.57;;
40637;SDS011;26336;44.696;10.622;2022-09-03T05:10:42;9.80;;;8.73;;
40637;SDS011;26336;44.696;10.622;2022-09-03T05:13:49;10.93;;;8.40;;
40637;SDS011;26336;44.696;10.622;2022-09-03T05:16:54;9.27;;;8.48;;
40637;SDS011;26336;44.696;10.622;2022-09-03T05:19:58;9.15;;;8.20;;
40637;SDS011;26336;44.696;10.622;2022-09-03T05:23:02;9.38;;;8.48;;
40637;SDS011;26336;44.696;10.622;2022-09-03T05:26:09;10.27;;;9.02;;
40637;SDS011;26336;44.696;10.622;2022-09-03T05:29:17;10.95;;;9.88;;
40637;SDS011;26336;44.696;10.622;2022-09-03T05:32:22;10.85;;;9.82;;
40637;SDS011;26336;44.696;10.622;2022-09-03T05:35:28;10.63;;;9.68;;
40637;SDS011;26336;44.696;10.622;2022-09-03T05:38:31;12.40;;;10.18;;
40637;SDS011;26336;44.696;10.622;2022-09-03T05:41:36;11.90;;;10.15;;
40637;SDS011;26336;44.696;10.622;2022-09-03T05:44:40;14.25;;;9.50;;
40637;SDS011;26336;44.696;10.622;2022-09-03T05:47:44;12.10;;;10.88;;
40637;SDS011;26336;44.696;10.622;2022-09-03T05:50:48;12.20;;;10.48;;
40637;SDS011;26336;44.696;10.622;2022-09-03T05:53:52;8.50;;;7.80;;
40637;SDS011;26336;44.696;10.622;2022-09-03T05:56:57;10.40;;;9.32;;
40637;SDS011;26336;44.696;10.622;2022-09-03T06:00:02;11.27;;;9.88;;
40637;SDS011;26336;44.696;10.622;2022-09-03T06:03:15;10.48;;;9.38;;
40637;SDS011;26336;44.696;10.622;2022-09-03T06:06:19;12.23;;;10.57;;
40637;SDS011;26336;44.696;10.622;2022-09-03T06:09:27;13.18;;;11.95;;
40637;SDS011;26336;44.696;10.622;2022-09-03T06:12:31;12.70;;;10.68;;
40637;SDS011;26336;44.696;10.622;2022-09-03T06:15:36;11.88;;;10.75;;
40637;SDS011;26336;44.696;10.622;2022-09-03T06:18:39;8.60;;;6.47;;
40637;SDS011;26336;44.696;10.622;2022-09-03T06:21:44;11.73;;;10.13;;
40637;SDS011;26336;44.696;10.622;2022-09-03T06:24:49;9.90;;;9.00;;
40637;SDS011;26336;44.696;10.622;2022-09-03T06:27:53;12.65;;;8.90;;
40637;SDS011;26336;44.696;10.622;2022-09-03T06:30:57;12.38;;;9.55;;
40637;SDS011;26336;44.696;10.622;2022-09-03T06:34:02;11.60;;;10.38;;
40637;SDS011;26336;44.696;10.622;2022-09-03T06:37:06;11.20;;;9.80;;
40637;SDS011;26336;44.696;10.622;2022-09-03T06:40:10;13.75;;;10.55;;
40637;SDS011;26336;44.696;10.622;2022-09-03T06:43:23;11.35;;;10.25;;
40637;SDS011;26336;44.696;10.622;2022-09-03T06:46:33;17.38;;;10.73;;
40637;SDS011;26336;44.696;10.622;2022-09-03T06:49:38;12.00;;;10.90;;
40637;SDS011;26336;44.696;10.622;2022-09-03T06:52:42;13.25;;;10.95;;
40637;SDS011;26336;44.696;10.622;2022-09-03T06:55:59;10.70;;;9.43;;
40637;SDS011;26336;44.696;10.622;2022-09-03T06:59:12;10.98;;;9.88;;
40637;SDS011;26336;44.696;10.622;2022-09-03T07:02:17;12.00;;;10.80;;
40637;SDS011;26336;44.696;10.622;2022-09-03T07:05:21;12.73;;;10.73;;
40637;SDS011;26336;44.696;10.622;2022-09-03T07:08:27;12.63;;;10.48;;
40637;SDS011;26336;44.696;10.622;2022-09-03T07:11:33;11.98;;;10.52;;
40637;SDS011;26336;44.696;10.622;2022-09-03T07:14:38;12.50;;;8.60;;
40637;SDS011;26336;44.696;10.622;2022-09-03T07:17:42;14.82;;;12.25;;
40637;SDS011;26336;44.696;10.622;2022-09-03T07:20:46;12.00;;;10.77;;
40637;SDS011;26336;44.696;10.622;2022-09-03T07:23:50;6.78;;;6.07;;
40637;SDS011;26336;44.696;10.622;2022-09-03T07:26:55;7.28;;;6.45;;
40637;SDS011;26336;44.696;10.622;2022-09-03T07:29:59;11.75;;;10.55;;
40637;SDS011;26336;44.696;10.622;2022-09-03T07:33:05;11.32;;;10.07;;
40637;SDS011;26336;44.696;10.622;2022-09-03T07:36:10;10.57;;;8.63;;
40637;SDS011;26336;44.696;10.622;2022-09-03T07:39:19;10.32;;;8.65;;
40637;SDS011;26336;44.696;10.622;2022-09-03T07:42:23;11.32;;;8.95;;
40637;SDS011;26336;44.696;10.622;2022-09-03T07:45:30;12.02;;;9.77;;
40637;SDS011;26336;44.696;10.622;2022-09-03T07:48:35;13.48;;;10.13;;
40637;SDS011;26336;44.696;10.622;2022-09-03T07:51:39;16.00;;;9.50;;
40637;SDS011;26336;44.696;10.622;2022-09-03T07:54:43;9.65;;;8.38;;
40637;SDS011;26336;44.696;10.622;2022-09-03T07:57:47;7.15;;;5.90;;
40637;SDS011;26336;44.696;10.622;2022-09-03T08:00:51;8.65;;;6.07;;
40637;SDS011;26336;44.696;10.622;2022-09-03T08:04:00;11.68;;;10.48;;
40637;SDS011;26336;44.696;10.622;2022-09-03T08:07:04;12.27;;;7.55;;
40637;SDS011;26336;44.696;10.622;2022-09-03T08:10:11;14.57;;;9.48;;
40637;SDS011;26336;44.696;10.622;2022-09-03T08:13:16;7.53;;;4.95;;
40637;SDS011;26336;44.696;10.622;2022-09-03T08:16:20;11.50;;;9.60;;
40637;SDS011;26336;44.696;10.622;2022-09-03T08:19:24;10.75;;;8.65;;
40637;SDS011;26336;44.696;10.622;2022-09-03T08:22:28;10.18;;;9.02;;
40637;SDS011;26336;44.696;10.622;2022-09-03T08:25:32;10.25;;;9.25;;
40637;SDS011;26336;44.696;10.622;2022-09-03T08:28:39;11.15;;;9.23;;
40637;SDS011;26336;44.696;10.622;2022-09-03T08:31:45;10.60;;;9.43;;
40637;SDS011;26336;44.696;10.622;2022-09-03T08:34:49;9.60;;;8.55;;
40637;SDS011;26336;44.696;10.622;2022-09-03T08:37:54;10.70;;;9.70;;
40637;SDS011;26336;44.696;10.622;2022-09-03T08:41:03;11.73;;;10.30;;
40637;SDS011;26336;44.696;10.622;2022-09-03T08:47:29;11.95;;;10.48;;
40637;SDS011;26336;44.696;10.622;2022-09-03T08:50:40;12.07;;;8.75;;
40637;SDS011;26336;44.696;10.622;2022-09-03T08:53:50;8.25;;;6.57;;
40637;SDS011;26336;44.696;10.622;2022-09-03T08:56:59;7.68;;;7.00;;
40637;SDS011;26336;44.696;10.622;2022-09-03T09:00:05;8.45;;;7.50;;
40637;SDS011;26336;44.696;10.622;2022-09-03T09:23:03;8.95;;;5.53;;
40637;SDS011;26336;44.696;10.622;2022-09-03T09:26:10;7.13;;;6.40;;
40637;SDS011;26336;44.696;10.622;2022-09-03T09:29:17;7.18;;;5.97;;
40637;SDS011;26336;44.696;10.622;2022-09-03T09:32:21;8.68;;;5.40;;
40637;SDS011;26336;44.696;10.622;2022-09-03T09:35:25;7.18;;;5.97;;
40637;SDS011;26336;44.696;10.622;2022-09-03T09:38:34;5.55;;;4.97;;
40637;SDS011;26336;44.696;10.622;2022-09-03T09:41:40;7.32;;;5.55;;
40637;SDS011;26336;44.696;10.622;2022-09-03T09:44:46;7.75;;;4.93;;
40637;SDS011;26336;44.696;10.622;2022-09-03T09:47:52;6.65;;;4.80;;
40637;SDS011;26336;44.696;10.622;2022-09-03T09:51:12;5.80;;;4.88;;
40637;SDS011;26336;44.696;10.622;2022-09-03T09:54:24;6.88;;;4.53;;
40637;SDS011;26336;44.696;10.622;2022-09-03T09:57:30;8.75;;;4.90;;
40637;SDS011;26336;44.696;10.622;2022-09-03T10:00:34;7.85;;;5.22;;
40637;SDS011;26336;44.696;10.622;2022-09-03T10:03:47;5.18;;;4.68;;
40637;SDS011;26336;44.696;10.622;2022-09-03T10:07:00;6.10;;;4.13;;
40637;SDS011;26336;44.696;10.622;2022-09-03T10:10:18;11.15;;;5.47;;
40637;SDS011;26336;44.696;10.622;2022-09-03T10:13:34;7.32;;;5.20;;
40637;SDS011;26336;44.696;10.622;2022-09-03T10:16:44;5.85;;;5.22;;
40637;SDS011;26336;44.696;10.622;2022-09-03T10:23:35;7.60;;;4.80;;
40637;SDS011;26336;44.696;10.622;2022-09-03T10:26:44;6.68;;;6.05;;
40637;SDS011;26336;44.696;10.622;2022-09-03T10:29:48;6.63;;;5.70;;
40637;SDS011;26336;44.696;10.622;2022-09-03T10:33:00;8.13;;;5.07;;
40637;SDS011;26336;44.696;10.622;2022-09-03T10:36:12;6.00;;;4.43;;
40637;SDS011;26336;44.696;10.622;2022-09-03T10:46:15;7.40;;;4.82;;
40637;SDS011;26336;44.696;10.622;2022-09-03T10:49:33;5.95;;;5.38;;
40637;SDS011;26336;44.696;10.622;2022-09-03T11:10:08;5.43;;;4.93;;
40637;SDS011;26336;44.696;10.622;2022-09-03T11:13:19;6.38;;;5.20;;
40637;SDS011;26336;44.696;10.622;2022-09-03T11:16:47;6.57;;;4.97;;
40637;SDS011;26336;44.696;10.622;2022-09-03T11:19:58;6.28;;;5.03;;
40637;SDS011;26336;44.696;10.622;2022-09-03T11:23:04;9.68;;;5.57;;
40637;SDS011;26336;44.696;10.622;2022-09-03T11:26:13;7.40;;;5.10;;
40637;SDS011;26336;44.696;10.622;2022-09-03T11:35:59;5.97;;;5.32;;
40637;SDS011;26336;44.696;10.622;2022-09-03T11:39:21;9.93;;;6.63;;
40637;SDS011;26336;44.696;10.622;2022-09-03T11:42:36;9.18;;;5.63;;
40637;SDS011;26336;44.696;10.622;2022-09-03T11:45:43;6.45;;;4.47;;
40637;SDS011;26336;44.696;10.622;2022-09-03T11:48:47;7.20;;;5.05;;
40637;SDS011;26336;44.696;10.622;2022-09-03T11:52:01;5.25;;;4.35;;
40637;SDS011;26336;44.696;10.622;2022-09-03T11:55:09;5.00;;;4.50;;
40637;SDS011;26336;44.696;10.622;2022-09-03T12:05:40;5.97;;;4.38;;
40637;SDS011;26336;44.696;10.622;2022-09-03T12:09:00;5.50;;;4.13;;
40637;SDS011;26336;44.696;10.622;2022-09-03T12:16:00;3.97;;;3.50;;
40637;SDS011;26336;44.696;10.622;2022-09-03T12:19:35;7.93;;;3.75;;
40637;SDS011;26336;44.696;10.622;2022-09-03T12:22:46;5.13;;;3.88;;
40637;SDS011;26336;44.696;10.622;2022-09-03T12:25:51;7.47;;;4.30;;
40637;SDS011;26336;44.696;10.622;2022-09-03T12:28:58;5.80;;;3.83;;
40637;SDS011;26336;44.696;10.622;2022-09-03T12:32:07;6.68;;;3.70;;
40637;SDS011;26336;44.696;10.622;2022-09-03T12:35:15;7.20;;;4.13;;
40637;SDS011;26336;44.696;10.622;2022-09-03T12:38:26;11.30;;;4.57;;
40637;SDS011;26336;44.696;10.622;2022-09-03T12:41:36;4.13;;;3.83;;
40637;SDS011;26336;44.696;10.622;2022-09-03T12:44:40;4.95;;;4.50;;
40637;SDS011;26336;44.696;10.622;2022-09-03T12:47:45;3.40;;;3.10;;
40637;SDS011;26336;44.696;10.622;2022-09-03T12:50:59;6.25;;;3.30;;
40637;SDS011;26336;44.696;10.622;2022-09-03T12:54:08;5.75;;;4.82;;
40637;SDS011;26336;44.696;10.622;2022-09-03T12:57:20;5.95;;;4.22;;
40637;SDS011;26336;44.696;10.622;2022-09-03T13:00:28;4.50;;;3.92;;
40637;SDS011;26336;44.696;10.622;2022-09-03T13:06:47;4.00;;;3.60;;
40637;SDS011;26336;44.696;10.622;2022-09-03T13:10:06;8.15;;;4.15;;
40637;SDS011;26336;44.696;10.622;2022-09-03T13:13:21;5.43;;;4.35;;
40637;SDS011;26336;44.696;10.622;2022-09-03T13:26:22;4.05;;;2.88;;
40637;SDS011;26336;44.696;10.622;2022-09-03T13:36:09;4.63;;;3.85;;
40637;SDS011;26336;44.696;10.622;2022-09-03T13:39:37;3.70;;;3.40;;
40637;SDS011;26336;44.696;10.622;2022-09-03T13:45:55;6.00;;;3.55;;
40637;SDS011;26336;44.696;10.622;2022-09-03T13:49:26;5.40;;;3.40;;
40637;SDS011;26336;44.696;10.622;2022-09-03T13:52:59;6.03;;;3.70;;
40637;SDS011;26336;44.696;10.622;2022-09-03T13:56:17;3.58;;;3.28;;
40637;SDS011;26336;44.696;10.622;2022-09-03T14:06:54;3.60;;;2.75;;
40637;SDS011;26336;44.696;10.622;2022-09-03T14:10:10;3.20;;;2.67;;
40637;SDS011;26336;44.696;10.622;2022-09-03T14:13:43;4.28;;;3.33;;
40637;SDS011;26336;44.696;10.622;2022-09-03T14:20:34;4.25;;;3.30;;
40637;SDS011;26336;44.696;10.622;2022-09-03T14:24:54;4.80;;;3.08;;
40637;SDS011;26336;44.696;10.622;2022-09-03T14:27:38;3.30;;;3.00;;
40637;SDS011;26336;44.696;10.622;2022-09-03T14:30:45;3.17;;;2.88;;
40637;SDS011;26336;44.696;10.622;2022-09-03T14:41:03;3.88;;;3.58;;
40637;SDS011;26336;44.696;10.622;2022-09-03T14:47:52;3.85;;;3.00;;
40637;SDS011;26336;44.696;10.622;2022-09-03T14:58:04;4.40;;;3.70;;
40637;SDS011;26336;44.696;10.622;2022-09-03T15:01:15;8.38;;;3.65;;
40637;SDS011;26336;44.696;10.622;2022-09-03T15:04:28;5.57;;;5.07;;
40637;SDS011;26336;44.696;10.622;2022-09-03T15:07:54;6.60;;;4.55;;
40637;SDS011;26336;44.696;10.622;2022-09-03T15:11:17;6.38;;;3.88;;
40637;SDS011;26336;44.696;10.622;2022-09-03T15:14:52;5.47;;;4.23;;
40637;SDS011;26336;44.696;10.622;2022-09-03T15:28:14;5.88;;;4.63;;
40637;SDS011;26336;44.696;10.622;2022-09-03T15:35:05;6.82;;;4.55;;
40637;SDS011;26336;44.696;10.622;2022-09-03T15:45:48;7.35;;;4.80;;
40637;SDS011;26336;44.696;10.622;2022-09-03T15:52:19;7.07;;;5.70;;
40637;SDS011;26336;44.696;10.622;2022-09-03T15:55:49;7.38;;;5.90;;
40637;SDS011;26336;44.696;10.622;2022-09-03T16:02:57;7.60;;;5.28;;
40637;SDS011;26336;44.696;10.622;2022-09-03T16:12:54;4.60;;;4.20;;
40637;SDS011;26336;44.696;10.622;2022-09-03T16:16:13;5.57;;;3.83;;
40637;SDS011;26336;44.696;10.622;2022-09-03T16:19:36;6.15;;;4.05;;
40637;SDS011;26336;44.696;10.622;2022-09-03T16:26:09;5.57;;;3.97;;
40637;SDS011;26336;44.696;10.622;2022-09-03T16:29:29;5.60;;;4.00;;
40637;SDS011;26336;44.696;10.622;2022-09-03T16:32:38;5.68;;;3.83;;
40637;SDS011;26336;44.696;10.622;2022-09-03T16:39:17;4.50;;;4.07;;
40637;SDS011;26336;44.696;10.622;2022-09-03T16:42:49;5.60;;;4.07;;
40637;SDS011;26336;44.696;10.622;2022-09-03T16:53:05;5.30;;;4.68;;
40637;SDS011;26336;44.696;10.622;2022-09-03T17:00:06;6.05;;;5.40;;
40637;SDS011;26336;44.696;10.622;2022-09-03T17:03:20;4.72;;;3.78;;
40637;SDS011;26336;44.696;10.622;2022-09-03T17:10:12;6.95;;;4.63;;
40637;SDS011;26336;44.696;10.622;2022-09-03T17:23:40;8.52;;;6.40;;
40637;SDS011;26336;44.696;10.622;2022-09-03T17:36:37;10.13;;;5.68;;
40637;SDS011;26336;44.696;10.622;2022-09-03T17:39:53;6.05;;;5.55;;
40637;SDS011;26336;44.696;10.622;2022-09-03T17:43:14;7.57;;;5.10;;
40637;SDS011;26336;44.696;10.622;2022-09-03T17:46:47;7.90;;;5.70;;
40637;SDS011;26336;44.696;10.622;2022-09-03T17:53:31;7.05;;;5.97;;
40637;SDS011;26336;44.696;10.622;2022-09-03T17:57:03;8.18;;;5.28;;
40637;SDS011;26336;44.696;10.622;2022-09-03T18:00:21;7.97;;;6.60;;
40637;SDS011;26336;44.696;10.622;2022-09-03T18:06:46;9.02;;;7.15;;
40637;SDS011;26336;44.696;10.622;2022-09-03T18:16:53;11.30;;;9.13;;
40637;SDS011;26336;44.696;10.622;2022-09-03T18:20:13;11.18;;;8.48;;
40637;SDS011;26336;44.696;10.622;2022-09-03T18:23:48;10.52;;;9.43;;
40637;SDS011;26336;44.696;10.622;2022-09-03T18:27:35;8.50;;;7.70;;
40637;SDS011;26336;44.696;10.622;2022-09-03T18:30:54;10.18;;;8.65;;
40637;SDS011;26336;44.696;10.622;2022-09-03T18:34:17;11.15;;;9.90;;
40637;SDS011;26336;44.696;10.622;2022-09-03T18:37:45;11.32;;;10.07;;
40637;SDS011;26336;44.696;10.622;2022-09-03T18:44:45;13.45;;;12.20;;
40637;SDS011;26336;44.696;10.622;2022-09-03T18:56:08;12.65;;;11.45;;
40637;SDS011;26336;44.696;10.622;2022-09-03T19:03:34;15.48;;;13.02;;
40637;SDS011;26336;44.696;10.622;2022-09-03T19:14:14;13.70;;;12.02;;
40637;SDS011;26336;44.696;10.622;2022-09-03T19:24:51;14.15;;;12.77;;
40637;SDS011;26336;44.696;10.622;2022-09-03T19:31:46;12.88;;;11.50;;
40637;SDS011;26336;44.696;10.622;2022-09-03T19:35:26;14.80;;;11.52;;
40637;SDS011;26336;44.696;10.622;2022-09-03T19:43:17;15.93;;;13.77;;
40637;SDS011;26336;44.696;10.622;2022-09-03T19:46:47;13.95;;;12.55;;
40637;SDS011;26336;44.696;10.622;2022-09-03T19:50:21;12.90;;;11.77;;
40637;SDS011;26336;44.696;10.622;2022-09-03T19:53:47;13.40;;;11.85;;
40637;SDS011;26336;44.696;10.622;2022-09-03T19:57:11;14.60;;;13.10;;
40637;SDS011;26336;44.696;10.622;2022-09-03T20:00:36;14.38;;;12.90;;
40637;SDS011;26336;44.696;10.622;2022-09-03T20:04:01;13.27;;;11.85;;
40637;SDS011;26336;44.696;10.622;2022-09-03T20:07:33;14.32;;;12.32;;
40637;SDS011;26336;44.696;10.622;2022-09-03T20:10:57;13.75;;;12.23;;
40637;SDS011;26336;44.696;10.622;2022-09-03T20:14:03;14.70;;;13.20;;
40637;SDS011;26336;44.696;10.622;2022-09-03T20:20:47;12.07;;;10.88;;
40637;SDS011;26336;44.696;10.622;2022-09-03T20:24:21;11.32;;;10.32;;
40637;SDS011;26336;44.696;10.622;2022-09-03T20:31:09;12.25;;;10.70;;
40637;SDS011;26336;44.696;10.622;2022-09-03T20:34:38;10.75;;;9.70;;
40637;SDS011;26336;44.696;10.622;2022-09-03T20:38:11;10.68;;;9.60;;
40637;SDS011;26336;44.696;10.622;2022-09-03T20:48:17;11.38;;;9.88;;
40637;SDS011;26336;44.696;10.622;2022-09-03T20:51:45;10.68;;;9.57;;
40637;SDS011;26336;44.696;10.622;2022-09-03T21:05:12;9.88;;;8.98;;
40637;SDS011;26336;44.696;10.622;2022-09-03T21:11:39;9.38;;;8.48;;
40637;SDS011;26336;44.696;10.622;2022-09-03T21:15:01;13.23;;;8.95;;
40637;SDS011;26336;44.696;10.622;2022-09-03T21:24:56;9.15;;;8.23;;
40637;SDS011;26336;44.696;10.622;2022-09-03T21:31:25;11.60;;;9.40;;
40637;SDS011;26336;44.696;10.622;2022-09-03T21:34:39;8.25;;;7.45;;
40637;SDS011;26336;44.696;10.622;2022-09-03T21:37:49;10.35;;;9.32;;
40637;SDS011;26336;44.696;10.622;2022-09-03T21:51:14;8.27;;;7.45;;
40637;SDS011;26336;44.696;10.622;2022-09-03T21:54:27;8.43;;;7.57;;
40637;SDS011;26336;44.696;10.622;2022-09-03T21:57:33;9.30;;;8.35;;
40637;SDS011;26336;44.696;10.622;2022-09-03T22:00:54;11.88;;;10.68;;
40637;SDS011;26336;44.696;10.622;2022-09-03T22:04:01;11.43;;;10.27;;
40637;SDS011;26336;44.696;10.622;2022-09-03T22:07:21;9.27;;;8.38;;
40637;SDS011;26336;44.696;10.622;2022-09-03T22:14:09;9.43;;;8.52;;
40637;SDS011;26336;44.696;10.622;2022-09-03T22:20:51;9.57;;;8.45;;
40637;SDS011;26336;44.696;10.622;2022-09-03T22:27:35;10.23;;;9.23;;
40637;SDS011;26336;44.696;10.622;2022-09-03T22:30:51;11.00;;;9.98;;
40637;SDS011;26336;44.696;10.622;2022-09-03T22:34:05;10.82;;;9.73;;
40637;SDS011;26336;44.696;10.622;2022-09-03T22:40:46;12.13;;;10.85;;
40637;SDS011;26336;44.696;10.622;2022-09-03T22:47:14;9.98;;;9.02;;
40637;SDS011;26336;44.696;10.622;2022-09-03T22:57:24;11.43;;;9.77;;
40637;SDS011;26336;44.696;10.622;2022-09-03T23:00:33;11.75;;;10.02;;
40637;SDS011;26336;44.696;10.622;2022-09-03T23:06:47;11.35;;;10.18;;
40637;SDS011;26336;44.696;10.622;2022-09-03T23:09:59;12.43;;;11.27;;
40637;SDS011;26336;44.696;10.622;2022-09-03T23:13:19;11.75;;;10.60;;
40637;SDS011;26336;44.696;10.622;2022-09-03T23:16:44;12.82;;;11.63;;
40637;SDS011;26336;44.696;10.622;2022-09-03T23:20:03;12.50;;;10.75;;
40637;SDS011;26336;44.696;10.622;2022-09-03T23:26:38;14.07;;;12.23;;
40637;SDS011;26336;44.696;10.622;2022-09-03T23:29:50;12.93;;;11.63;;
40637;SDS011;26336;44.696;10.622;2022-09-03T23:32:58;15.40;;;13.82;;
40637;SDS011;26336;44.696;10.622;2022-09-03T23:36:06;15.20;;;13.75;;
40637;SDS011;26336;44.696;10.622;2022-09-03T23:42:45;18.75;;;16.83;;
40637;SDS011;26336;44.696;10.622;2022-09-03T23:46:04;15.35;;;13.80;;
40637;SDS011;26336;44.696;10.622;2022-09-03T23:52:38;17.05;;;15.38;;
40637;SDS011;26336;44.696;10.622;2022-09-03T23:56:20;17.92;;;16.17;;
40637;SDS011;26336;44.696;10.622;2022-09-03T23:59:33;14.43;;;13.02;;
